sensor_id;sensor_type;location;lat;lon;timestamp;P1;durP1;ratioP1;P2;durP2;ratioP2
9409;SDS011;4744;52.576;13.568;2023-03-31T00:01:52;4.95;;;2.22;;
9409;SDS011;4744;52.576;13.568;2023-03-31T00:04:22;4.25;;;1.83;;
9409;SDS011;4744;52.576;13.568;2023-03-31T00:06:50;2.75;;;1.70;;
9409;SDS011;4744;52.576;13.568;2023-03-31T00:09:18;3.10;;;2.13;;
9409;SDS011;4744;52.576;13.568;2023-03-31T00:11:46;3.13;;;2.08;;
9409;SDS011;4744;52.576;13.568;2023-03-31T00:14:15;2.85;;;1.80;;
9409;SDS011;4744;52.576;13.568;2023-03-31T00:16:43;4.20;;;2.05;;
9409;SDS011;4744;52.576;13.568;2023-03-31T00:19:11;2.38;;;1.77;;
9409;SDS011;4744;52.576;13.568;2023-03-31T00:21:44;3.45;;;2.22;;
9409;SDS011;4744;52.576;13.568;2023-03-31T00:24:11;4.40;;;2.20;;
9409;SDS011;4744;52.576;13.568;2023-03-31T00:26:40;3.30;;;1.80;;
9409;SDS011;4744;52.576;13.568;2023-03-31T00:29:08;2.30;;;1.65;;
9409;SDS011;4744;52.576;13.568;2023-03-31T00:31:38;4.82;;;1.92;;
9409;SDS011;4744;52.576;13.568;2023-03-31T00:34:05;2.60;;;1.92;;
9409;SDS011;4744;52.576;13.568;2023-03-31T00:36:33;2.03;;;1.60;;
9409;SDS011;4744;52.576;13.568;2023-03-31T00:39:09;4.63;;;2.10;;
9409;SDS011;4744;52.576;13.568;2023-03-31T00:41:37;2.58;;;1.70;;
9409;SDS011;4744;52.576;13.568;2023-03-31T00:44:06;3.60;;;1.90;;
9409;SDS011;4744;52.576;13.568;2023-03-31T00:46:39;2.28;;;1.80;;
9409;SDS011;4744;52.576;13.568;2023-03-31T00:49:13;2.45;;;1.80;;
9409;SDS011;4744;52.576;13.568;2023-03-31T00:51:45;3.55;;;1.70;;
9409;SDS011;4744;52.576;13.568;2023-03-31T00:54:14;4.05;;;1.90;;
9409;SDS011;4744;52.576;13.568;2023-03-31T00:56:44;3.63;;;1.90;;
9409;SDS011;4744;52.576;13.568;2023-03-31T00:59:13;3.13;;;1.70;;
9409;SDS011;4744;52.576;13.568;2023-03-31T01:01:43;4.28;;;1.83;;
9409;SDS011;4744;52.576;13.568;2023-03-31T01:04:14;3.30;;;1.50;;
9409;SDS011;4744;52.576;13.568;2023-03-31T01:06:49;3.28;;;2.00;;
9409;SDS011;4744;52.576;13.568;2023-03-31T01:09:25;3.35;;;1.77;;
9409;SDS011;4744;52.576;13.568;2023-03-31T01:11:59;1.83;;;1.50;;
9409;SDS011;4744;52.576;13.568;2023-03-31T01:14:27;3.28;;;1.60;;
9409;SDS011;4744;52.576;13.568;2023-03-31T01:16:56;1.85;;;1.50;;
9409;SDS011;4744;52.576;13.568;2023-03-31T01:19:27;3.38;;;1.70;;
9409;SDS011;4744;52.576;13.568;2023-03-31T01:22:10;4.78;;;1.77;;
9409;SDS011;4744;52.576;13.568;2023-03-31T01:25:11;4.18;;;1.80;;
9409;SDS011;4744;52.576;13.568;2023-03-31T01:31:01;4.25;;;1.75;;
9409;SDS011;4744;52.576;13.568;2023-03-31T01:33:53;2.00;;;1.50;;
9409;SDS011;4744;52.576;13.568;2023-03-31T01:36:45;5.63;;;1.80;;
9409;SDS011;4744;52.576;13.568;2023-03-31T01:39:49;2.45;;;1.60;;
9409;SDS011;4744;52.576;13.568;2023-03-31T01:42:49;3.17;;;1.30;;
9409;SDS011;4744;52.576;13.568;2023-03-31T01:45:31;5.13;;;2.13;;
9409;SDS011;4744;52.576;13.568;2023-03-31T01:48:09;3.65;;;1.67;;
9409;SDS011;4744;52.576;13.568;2023-03-31T01:50:43;2.88;;;1.50;;
9409;SDS011;4744;52.576;13.568;2023-03-31T01:53:14;3.45;;;1.65;;
9409;SDS011;4744;52.576;13.568;2023-03-31T01:55:47;3.05;;;1.73;;
9409;SDS011;4744;52.576;13.568;2023-03-31T01:58:19;3.35;;;1.70;;
9409;SDS011;4744;52.576;13.568;2023-03-31T02:00:50;3.33;;;1.67;;
9409;SDS011;4744;52.576;13.568;2023-03-31T02:03:21;2.53;;;1.60;;
9409;SDS011;4744;52.576;13.568;2023-03-31T02:05:54;3.88;;;1.60;;
9409;SDS011;4744;52.576;13.568;2023-03-31T02:08:22;2.35;;;1.50;;
9409;SDS011;4744;52.576;13.568;2023-03-31T02:10:54;3.55;;;1.60;;
9409;SDS011;4744;52.576;13.568;2023-03-31T02:13:22;2.72;;;1.50;;
9409;SDS011;4744;52.576;13.568;2023-03-31T02:15:53;2.38;;;1.67;;
9409;SDS011;4744;52.576;13.568;2023-03-31T02:18:25;4.95;;;1.83;;
9409;SDS011;4744;52.576;13.568;2023-03-31T02:20:57;2.58;;;1.70;;
9409;SDS011;4744;52.576;13.568;2023-03-31T02:23:26;3.78;;;1.95;;
9409;SDS011;4744;52.576;13.568;2023-03-31T02:25:58;6.57;;;1.60;;
9409;SDS011;4744;52.576;13.568;2023-03-31T02:28:28;2.42;;;1.58;;
9409;SDS011;4744;52.576;13.568;2023-03-31T02:30:59;2.95;;;1.55;;
9409;SDS011;4744;52.576;13.568;2023-03-31T02:33:33;4.30;;;1.88;;
9409;SDS011;4744;52.576;13.568;2023-03-31T02:36:00;4.30;;;1.55;;
9409;SDS011;4744;52.576;13.568;2023-03-31T02:38:28;3.10;;;1.30;;
9409;SDS011;4744;52.576;13.568;2023-03-31T02:40:59;4.55;;;1.60;;
9409;SDS011;4744;52.576;13.568;2023-03-31T02:43:26;3.28;;;1.70;;
9409;SDS011;4744;52.576;13.568;2023-03-31T02:45:53;4.30;;;1.65;;
9409;SDS011;4744;52.576;13.568;2023-03-31T02:48:21;2.70;;;1.60;;
9409;SDS011;4744;52.576;13.568;2023-03-31T02:51:00;2.85;;;1.50;;
9409;SDS011;4744;52.576;13.568;2023-03-31T02:54:07;4.70;;;1.35;;
9409;SDS011;4744;52.576;13.568;2023-03-31T02:57:12;4.82;;;2.03;;
9409;SDS011;4744;52.576;13.568;2023-03-31T02:59:51;4.00;;;1.60;;
9409;SDS011;4744;52.576;13.568;2023-03-31T03:02:30;4.43;;;1.90;;
9409;SDS011;4744;52.576;13.568;2023-03-31T03:05:11;4.25;;;2.00;;
9409;SDS011;4744;52.576;13.568;2023-03-31T03:07:55;7.63;;;1.70;;
9409;SDS011;4744;52.576;13.568;2023-03-31T03:10:30;5.60;;;1.90;;
9409;SDS011;4744;52.576;13.568;2023-03-31T03:13:10;3.00;;;1.63;;
9409;SDS011;4744;52.576;13.568;2023-03-31T03:15:46;5.28;;;1.85;;
9409;SDS011;4744;52.576;13.568;2023-03-31T03:18:18;4.20;;;1.42;;
9409;SDS011;4744;52.576;13.568;2023-03-31T03:20:45;3.05;;;1.77;;
9409;SDS011;4744;52.576;13.568;2023-03-31T03:23:15;4.60;;;1.73;;
9409;SDS011;4744;52.576;13.568;2023-03-31T03:25:42;4.70;;;1.75;;
9409;SDS011;4744;52.576;13.568;2023-03-31T03:28:11;3.60;;;1.70;;
9409;SDS011;4744;52.576;13.568;2023-03-31T03:30:38;3.05;;;1.60;;
9409;SDS011;4744;52.576;13.568;2023-03-31T03:33:05;2.03;;;1.35;;
9409;SDS011;4744;52.576;13.568;2023-03-31T03:35:32;4.95;;;1.55;;
9409;SDS011;4744;52.576;13.568;2023-03-31T03:37:59;3.75;;;1.50;;
9409;SDS011;4744;52.576;13.568;2023-03-31T03:40:26;2.90;;;1.55;;
9409;SDS011;4744;52.576;13.568;2023-03-31T03:42:53;3.15;;;1.50;;
9409;SDS011;4744;52.576;13.568;2023-03-31T03:45:21;2.80;;;1.20;;
9409;SDS011;4744;52.576;13.568;2023-03-31T03:47:48;1.88;;;1.20;;
9409;SDS011;4744;52.576;13.568;2023-03-31T03:50:15;2.85;;;1.58;;
9409;SDS011;4744;52.576;13.568;2023-03-31T03:52:42;4.10;;;1.55;;
9409;SDS011;4744;52.576;13.568;2023-03-31T03:55:09;1.88;;;1.50;;
9409;SDS011;4744;52.576;13.568;2023-03-31T03:57:37;2.95;;;1.40;;
9409;SDS011;4744;52.576;13.568;2023-03-31T04:00:05;5.05;;;1.40;;
9409;SDS011;4744;52.576;13.568;2023-03-31T04:02:37;3.08;;;1.50;;
9409;SDS011;4744;52.576;13.568;2023-03-31T04:05:04;2.63;;;1.60;;
9409;SDS011;4744;52.576;13.568;2023-03-31T04:07:31;2.45;;;1.50;;
9409;SDS011;4744;52.576;13.568;2023-03-31T04:09:58;2.83;;;1.67;;
9409;SDS011;4744;52.576;13.568;2023-03-31T04:12:25;3.28;;;1.45;;
9409;SDS011;4744;52.576;13.568;2023-03-31T04:14:52;3.78;;;1.80;;
9409;SDS011;4744;52.576;13.568;2023-03-31T04:17:19;3.78;;;1.52;;
9409;SDS011;4744;52.576;13.568;2023-03-31T04:19:58;2.70;;;1.55;;
9409;SDS011;4744;52.576;13.568;2023-03-31T04:22:29;4.70;;;1.70;;
9409;SDS011;4744;52.576;13.568;2023-03-31T04:24:59;4.82;;;1.60;;
9409;SDS011;4744;52.576;13.568;2023-03-31T04:27:27;6.25;;;1.65;;
9409;SDS011;4744;52.576;13.568;2023-03-31T04:29:55;6.55;;;1.88;;
9409;SDS011;4744;52.576;13.568;2023-03-31T04:32:22;3.90;;;1.83;;
9409;SDS011;4744;52.576;13.568;2023-03-31T04:34:50;3.72;;;1.50;;
9409;SDS011;4744;52.576;13.568;2023-03-31T04:37:28;2.58;;;1.55;;
9409;SDS011;4744;52.576;13.568;2023-03-31T04:39:58;4.53;;;1.40;;
9409;SDS011;4744;52.576;13.568;2023-03-31T04:42:32;2.13;;;1.50;;
9409;SDS011;4744;52.576;13.568;2023-03-31T04:44:59;4.47;;;1.83;;
9409;SDS011;4744;52.576;13.568;2023-03-31T04:47:26;3.58;;;1.50;;
9409;SDS011;4744;52.576;13.568;2023-03-31T04:49:53;4.57;;;1.63;;
9409;SDS011;4744;52.576;13.568;2023-03-31T04:52:20;2.47;;;1.45;;
9409;SDS011;4744;52.576;13.568;2023-03-31T04:54:49;5.43;;;2.13;;
9409;SDS011;4744;52.576;13.568;2023-03-31T04:57:16;3.38;;;2.00;;
9409;SDS011;4744;52.576;13.568;2023-03-31T04:59:43;2.42;;;1.67;;
9409;SDS011;4744;52.576;13.568;2023-03-31T05:02:10;4.18;;;1.58;;
9409;SDS011;4744;52.576;13.568;2023-03-31T05:04:37;3.65;;;1.67;;
9409;SDS011;4744;52.576;13.568;2023-03-31T05:07:04;3.80;;;1.52;;
9409;SDS011;4744;52.576;13.568;2023-03-31T05:09:30;2.65;;;1.50;;
9409;SDS011;4744;52.576;13.568;2023-03-31T05:11:59;4.50;;;1.90;;
9409;SDS011;4744;52.576;13.568;2023-03-31T05:14:26;3.63;;;1.90;;
9409;SDS011;4744;52.576;13.568;2023-03-31T05:16:54;4.10;;;1.73;;
9409;SDS011;4744;52.576;13.568;2023-03-31T05:19:21;1.58;;;1.48;;
9409;SDS011;4744;52.576;13.568;2023-03-31T05:21:48;3.28;;;1.90;;
9409;SDS011;4744;52.576;13.568;2023-03-31T05:24:15;5.05;;;1.73;;
9409;SDS011;4744;52.576;13.568;2023-03-31T05:26:42;4.60;;;2.00;;
9409;SDS011;4744;52.576;13.568;2023-03-31T05:29:15;3.45;;;1.75;;
9409;SDS011;4744;52.576;13.568;2023-03-31T05:31:42;3.30;;;2.00;;
9409;SDS011;4744;52.576;13.568;2023-03-31T05:34:09;3.47;;;1.50;;
9409;SDS011;4744;52.576;13.568;2023-03-31T05:36:35;6.90;;;2.10;;
9409;SDS011;4744;52.576;13.568;2023-03-31T05:39:02;3.22;;;2.00;;
9409;SDS011;4744;52.576;13.568;2023-03-31T05:41:30;4.40;;;1.85;;
9409;SDS011;4744;52.576;13.568;2023-03-31T05:43:57;3.33;;;1.92;;
9409;SDS011;4744;52.576;13.568;2023-03-31T05:46:25;3.78;;;1.98;;
9409;SDS011;4744;52.576;13.568;2023-03-31T05:48:52;4.82;;;2.08;;
9409;SDS011;4744;52.576;13.568;2023-03-31T05:51:19;6.93;;;2.17;;
9409;SDS011;4744;52.576;13.568;2023-03-31T05:53:46;6.20;;;1.90;;
9409;SDS011;4744;52.576;13.568;2023-03-31T05:56:13;4.10;;;2.00;;
9409;SDS011;4744;52.576;13.568;2023-03-31T05:58:40;4.68;;;1.80;;
9409;SDS011;4744;52.576;13.568;2023-03-31T06:01:07;4.88;;;1.60;;
9409;SDS011;4744;52.576;13.568;2023-03-31T06:03:37;5.70;;;1.90;;
9409;SDS011;4744;52.576;13.568;2023-03-31T06:06:06;4.55;;;2.20;;
9409;SDS011;4744;52.576;13.568;2023-03-31T06:08:34;3.47;;;1.85;;
9409;SDS011;4744;52.576;13.568;2023-03-31T06:11:03;3.15;;;1.70;;
9409;SDS011;4744;52.576;13.568;2023-03-31T06:13:31;2.00;;;1.60;;
9409;SDS011;4744;52.576;13.568;2023-03-31T06:15:59;3.50;;;1.67;;
9409;SDS011;4744;52.576;13.568;2023-03-31T06:18:26;4.90;;;1.88;;
9409;SDS011;4744;52.576;13.568;2023-03-31T06:20:56;5.40;;;2.10;;
9409;SDS011;4744;52.576;13.568;2023-03-31T06:23:23;4.55;;;1.88;;
9409;SDS011;4744;52.576;13.568;2023-03-31T06:25:51;9.32;;;2.40;;
9409;SDS011;4744;52.576;13.568;2023-03-31T06:28:18;5.82;;;2.08;;
9409;SDS011;4744;52.576;13.568;2023-03-31T06:30:46;4.25;;;1.92;;
9409;SDS011;4744;52.576;13.568;2023-03-31T06:33:13;4.50;;;1.83;;
9409;SDS011;4744;52.576;13.568;2023-03-31T06:35:42;4.47;;;2.00;;
9409;SDS011;4744;52.576;13.568;2023-03-31T06:38:11;3.50;;;1.95;;
9409;SDS011;4744;52.576;13.568;2023-03-31T06:40:37;6.65;;;1.67;;
9409;SDS011;4744;52.576;13.568;2023-03-31T06:43:05;4.72;;;2.20;;
9409;SDS011;4744;52.576;13.568;2023-03-31T06:45:32;2.33;;;1.70;;
9409;SDS011;4744;52.576;13.568;2023-03-31T06:47:58;2.92;;;1.80;;
9409;SDS011;4744;52.576;13.568;2023-03-31T06:50:25;4.97;;;2.00;;
9409;SDS011;4744;52.576;13.568;2023-03-31T06:52:52;5.50;;;2.05;;
9409;SDS011;4744;52.576;13.568;2023-03-31T06:55:21;9.45;;;2.03;;
9409;SDS011;4744;52.576;13.568;2023-03-31T06:57:48;4.07;;;1.73;;
9409;SDS011;4744;52.576;13.568;2023-03-31T07:00:15;6.10;;;2.10;;
9409;SDS011;4744;52.576;13.568;2023-03-31T07:02:43;4.93;;;2.17;;
9409;SDS011;4744;52.576;13.568;2023-03-31T07:05:10;6.18;;;2.05;;
9409;SDS011;4744;52.576;13.568;2023-03-31T07:07:37;5.90;;;1.83;;
9409;SDS011;4744;52.576;13.568;2023-03-31T07:10:04;4.88;;;2.03;;
9409;SDS011;4744;52.576;13.568;2023-03-31T07:12:33;3.20;;;2.05;;
9409;SDS011;4744;52.576;13.568;2023-03-31T07:15:00;4.65;;;2.17;;
9409;SDS011;4744;52.576;13.568;2023-03-31T07:17:27;3.45;;;1.88;;
9409;SDS011;4744;52.576;13.568;2023-03-31T07:19:54;4.20;;;2.17;;
9409;SDS011;4744;52.576;13.568;2023-03-31T07:22:21;7.85;;;2.15;;
9409;SDS011;4744;52.576;13.568;2023-03-31T07:24:48;6.95;;;2.20;;
9409;SDS011;4744;52.576;13.568;2023-03-31T07:27:15;6.25;;;2.00;;
9409;SDS011;4744;52.576;13.568;2023-03-31T07:29:44;5.22;;;2.00;;
9409;SDS011;4744;52.576;13.568;2023-03-31T07:32:10;6.13;;;2.03;;
9409;SDS011;4744;52.576;13.568;2023-03-31T07:34:37;5.53;;;2.38;;
9409;SDS011;4744;52.576;13.568;2023-03-31T07:37:05;2.85;;;2.30;;
9409;SDS011;4744;52.576;13.568;2023-03-31T07:39:32;6.30;;;2.20;;
9409;SDS011;4744;52.576;13.568;2023-03-31T07:42:01;3.78;;;2.05;;
9409;SDS011;4744;52.576;13.568;2023-03-31T07:44:28;5.43;;;1.90;;
9409;SDS011;4744;52.576;13.568;2023-03-31T07:46:56;5.38;;;2.30;;
9409;SDS011;4744;52.576;13.568;2023-03-31T07:49:25;6.40;;;2.40;;
9409;SDS011;4744;52.576;13.568;2023-03-31T07:51:52;3.92;;;2.00;;
9409;SDS011;4744;52.576;13.568;2023-03-31T07:54:20;7.38;;;2.65;;
9409;SDS011;4744;52.576;13.568;2023-03-31T07:56:47;5.25;;;1.98;;
9409;SDS011;4744;52.576;13.568;2023-03-31T07:59:14;5.22;;;1.98;;
9409;SDS011;4744;52.576;13.568;2023-03-31T08:01:41;4.50;;;1.90;;
9409;SDS011;4744;52.576;13.568;2023-03-31T08:04:09;4.03;;;2.20;;
9409;SDS011;4744;52.576;13.568;2023-03-31T08:06:37;3.75;;;1.90;;
9409;SDS011;4744;52.576;13.568;2023-03-31T08:09:05;7.22;;;2.17;;
9409;SDS011;4744;52.576;13.568;2023-03-31T08:11:32;4.85;;;1.80;;
9409;SDS011;4744;52.576;13.568;2023-03-31T08:14:00;4.03;;;1.88;;
9409;SDS011;4744;52.576;13.568;2023-03-31T08:16:27;4.22;;;1.70;;
9409;SDS011;4744;52.576;13.568;2023-03-31T08:18:54;6.53;;;2.38;;
9409;SDS011;4744;52.576;13.568;2023-03-31T08:21:22;3.58;;;2.03;;
9409;SDS011;4744;52.576;13.568;2023-03-31T08:23:51;3.22;;;1.90;;
9409;SDS011;4744;52.576;13.568;2023-03-31T08:26:19;3.20;;;1.92;;
9409;SDS011;4744;52.576;13.568;2023-03-31T08:28:48;5.45;;;1.90;;
9409;SDS011;4744;52.576;13.568;2023-03-31T08:31:16;3.20;;;1.80;;
9409;SDS011;4744;52.576;13.568;2023-03-31T08:33:43;3.88;;;1.70;;
9409;SDS011;4744;52.576;13.568;2023-03-31T08:36:11;5.20;;;1.70;;
9409;SDS011;4744;52.576;13.568;2023-03-31T08:38:40;4.65;;;2.00;;
9409;SDS011;4744;52.576;13.568;2023-03-31T08:41:13;3.05;;;1.92;;
9409;SDS011;4744;52.576;13.568;2023-03-31T08:43:51;3.60;;;2.00;;
9409;SDS011;4744;52.576;13.568;2023-03-31T08:46:20;3.13;;;1.85;;
9409;SDS011;4744;52.576;13.568;2023-03-31T08:48:48;5.95;;;1.88;;
9409;SDS011;4744;52.576;13.568;2023-03-31T08:51:18;4.82;;;2.00;;
9409;SDS011;4744;52.576;13.568;2023-03-31T08:53:50;4.82;;;2.05;;
9409;SDS011;4744;52.576;13.568;2023-03-31T08:56:23;5.10;;;2.00;;
9409;SDS011;4744;52.576;13.568;2023-03-31T08:58:52;6.35;;;2.25;;
9409;SDS011;4744;52.576;13.568;2023-03-31T09:01:22;5.10;;;1.77;;
9409;SDS011;4744;52.576;13.568;2023-03-31T09:04:05;2.92;;;1.60;;
9409;SDS011;4744;52.576;13.568;2023-03-31T09:06:46;3.53;;;1.73;;
9409;SDS011;4744;52.576;13.568;2023-03-31T09:09:22;4.00;;;1.83;;
9409;SDS011;4744;52.576;13.568;2023-03-31T09:11:59;5.13;;;1.95;;
9409;SDS011;4744;52.576;13.568;2023-03-31T09:14:32;6.13;;;1.80;;
9409;SDS011;4744;52.576;13.568;2023-03-31T09:17:09;3.67;;;1.80;;
9409;SDS011;4744;52.576;13.568;2023-03-31T09:19:44;6.32;;;1.95;;
9409;SDS011;4744;52.576;13.568;2023-03-31T09:22:18;3.83;;;1.95;;
9409;SDS011;4744;52.576;13.568;2023-03-31T09:24:51;5.03;;;1.92;;
9409;SDS011;4744;52.576;13.568;2023-03-31T09:27:24;3.08;;;1.90;;
9409;SDS011;4744;52.576;13.568;2023-03-31T09:29:56;5.03;;;1.98;;
9409;SDS011;4744;52.576;13.568;2023-03-31T09:32:27;1.92;;;1.42;;
9409;SDS011;4744;52.576;13.568;2023-03-31T09:34:56;5.18;;;1.77;;
9409;SDS011;4744;52.576;13.568;2023-03-31T09:37:29;5.07;;;1.80;;
9409;SDS011;4744;52.576;13.568;2023-03-31T09:39:59;2.92;;;1.48;;
9409;SDS011;4744;52.576;13.568;2023-03-31T09:42:32;3.33;;;1.58;;
9409;SDS011;4744;52.576;13.568;2023-03-31T09:44:59;4.93;;;1.98;;
9409;SDS011;4744;52.576;13.568;2023-03-31T09:47:28;5.70;;;1.95;;
9409;SDS011;4744;52.576;13.568;2023-03-31T09:49:57;6.65;;;2.05;;
9409;SDS011;4744;52.576;13.568;2023-03-31T09:52:26;4.35;;;1.80;;
9409;SDS011;4744;52.576;13.568;2023-03-31T09:54:57;4.38;;;1.85;;
9409;SDS011;4744;52.576;13.568;2023-03-31T09:57:28;4.07;;;1.83;;
9409;SDS011;4744;52.576;13.568;2023-03-31T10:00:00;3.55;;;1.40;;
9409;SDS011;4744;52.576;13.568;2023-03-31T10:02:35;3.35;;;1.63;;
9409;SDS011;4744;52.576;13.568;2023-03-31T10:05:04;5.25;;;2.00;;
9409;SDS011;4744;52.576;13.568;2023-03-31T10:07:33;7.13;;;1.80;;
9409;SDS011;4744;52.576;13.568;2023-03-31T10:10:00;4.80;;;1.98;;
9409;SDS011;4744;52.576;13.568;2023-03-31T10:12:29;4.07;;;1.60;;
9409;SDS011;4744;52.576;13.568;2023-03-31T10:15:13;6.60;;;1.98;;
9409;SDS011;4744;52.576;13.568;2023-03-31T10:17:44;5.28;;;1.70;;
9409;SDS011;4744;52.576;13.568;2023-03-31T10:20:31;3.55;;;1.70;;
9409;SDS011;4744;52.576;13.568;2023-03-31T10:23:03;2.10;;;1.30;;
9409;SDS011;4744;52.576;13.568;2023-03-31T10:25:40;4.50;;;1.60;;
9409;SDS011;4744;52.576;13.568;2023-03-31T10:28:10;3.35;;;1.60;;
9409;SDS011;4744;52.576;13.568;2023-03-31T10:30:41;3.90;;;1.70;;
9409;SDS011;4744;52.576;13.568;2023-03-31T10:33:14;2.40;;;1.63;;
9409;SDS011;4744;52.576;13.568;2023-03-31T10:35:44;2.85;;;1.70;;
9409;SDS011;4744;52.576;13.568;2023-03-31T10:38:14;2.90;;;1.55;;
9409;SDS011;4744;52.576;13.568;2023-03-31T10:40:49;2.83;;;1.40;;
9409;SDS011;4744;52.576;13.568;2023-03-31T10:43:19;2.75;;;1.48;;
9409;SDS011;4744;52.576;13.568;2023-03-31T10:45:51;2.63;;;1.40;;
9409;SDS011;4744;52.576;13.568;2023-03-31T10:48:22;5.75;;;1.60;;
9409;SDS011;4744;52.576;13.568;2023-03-31T10:50:51;5.00;;;1.70;;
9409;SDS011;4744;52.576;13.568;2023-03-31T10:53:18;3.15;;;1.65;;
9409;SDS011;4744;52.576;13.568;2023-03-31T10:55:50;2.17;;;1.70;;
9409;SDS011;4744;52.576;13.568;2023-03-31T10:58:40;3.63;;;1.70;;
9409;SDS011;4744;52.576;13.568;2023-03-31T11:01:23;2.83;;;1.85;;
9409;SDS011;4744;52.576;13.568;2023-03-31T11:04:04;2.05;;;1.80;;
9409;SDS011;4744;52.576;13.568;2023-03-31T11:06:54;4.07;;;1.90;;
9409;SDS011;4744;52.576;13.568;2023-03-31T11:09:32;2.97;;;2.10;;
9409;SDS011;4744;52.576;13.568;2023-03-31T11:12:12;2.13;;;1.92;;
9409;SDS011;4744;52.576;13.568;2023-03-31T11:14:52;4.45;;;2.15;;
9409;SDS011;4744;52.576;13.568;2023-03-31T11:17:32;4.00;;;1.95;;
9409;SDS011;4744;52.576;13.568;2023-03-31T11:20:12;3.45;;;1.95;;
9409;SDS011;4744;52.576;13.568;2023-03-31T11:22:47;1.73;;;1.55;;
9409;SDS011;4744;52.576;13.568;2023-03-31T11:25:21;2.28;;;1.88;;
9409;SDS011;4744;52.576;13.568;2023-03-31T11:27:59;3.75;;;1.85;;
9409;SDS011;4744;52.576;13.568;2023-03-31T11:30:43;3.05;;;1.75;;
9409;SDS011;4744;52.576;13.568;2023-03-31T11:33:21;2.75;;;1.23;;
9409;SDS011;4744;52.576;13.568;2023-03-31T11:36:08;2.22;;;1.60;;
9409;SDS011;4744;52.576;13.568;2023-03-31T11:38:48;3.30;;;1.80;;
9409;SDS011;4744;52.576;13.568;2023-03-31T11:41:27;3.17;;;1.60;;
9409;SDS011;4744;52.576;13.568;2023-03-31T11:43:59;3.50;;;2.60;;
9409;SDS011;4744;52.576;13.568;2023-03-31T11:46:32;2.65;;;2.00;;
9409;SDS011;4744;52.576;13.568;2023-03-31T11:49:05;2.20;;;1.90;;
9409;SDS011;4744;52.576;13.568;2023-03-31T11:51:40;4.90;;;1.90;;
9409;SDS011;4744;52.576;13.568;2023-03-31T11:54:09;2.80;;;1.80;;
9409;SDS011;4744;52.576;13.568;2023-03-31T11:56:43;3.22;;;1.85;;
9409;SDS011;4744;52.576;13.568;2023-03-31T11:59:11;3.67;;;2.20;;
9409;SDS011;4744;52.576;13.568;2023-03-31T12:01:43;2.78;;;1.85;;
9409;SDS011;4744;52.576;13.568;2023-03-31T12:04:19;3.40;;;1.90;;
9409;SDS011;4744;52.576;13.568;2023-03-31T12:06:56;4.18;;;2.00;;
9409;SDS011;4744;52.576;13.568;2023-03-31T12:09:27;4.28;;;1.35;;
9409;SDS011;4744;52.576;13.568;2023-03-31T12:12:01;4.47;;;1.70;;
9409;SDS011;4744;52.576;13.568;2023-03-31T12:14:33;2.20;;;1.60;;
9409;SDS011;4744;52.576;13.568;2023-03-31T12:17:07;2.33;;;1.70;;
9409;SDS011;4744;52.576;13.568;2023-03-31T12:19:39;5.00;;;1.90;;
9409;SDS011;4744;52.576;13.568;2023-03-31T12:22:12;4.22;;;1.73;;
9409;SDS011;4744;52.576;13.568;2023-03-31T12:24:43;6.60;;;1.35;;
9409;SDS011;4744;52.576;13.568;2023-03-31T12:27:12;3.75;;;1.70;;
9409;SDS011;4744;52.576;13.568;2023-03-31T12:29:44;4.10;;;1.80;;
9409;SDS011;4744;52.576;13.568;2023-03-31T12:32:16;4.38;;;2.35;;
9409;SDS011;4744;52.576;13.568;2023-03-31T12:34:47;3.65;;;1.75;;
9409;SDS011;4744;52.576;13.568;2023-03-31T12:37:23;4.25;;;2.30;;
9409;SDS011;4744;52.576;13.568;2023-03-31T12:40:15;5.47;;;3.00;;
9409;SDS011;4744;52.576;13.568;2023-03-31T12:42:52;2.65;;;1.83;;
9409;SDS011;4744;52.576;13.568;2023-03-31T12:45:28;2.55;;;1.65;;
9409;SDS011;4744;52.576;13.568;2023-03-31T12:50:52;2.95;;;1.70;;
9409;SDS011;4744;52.576;13.568;2023-03-31T12:53:30;4.82;;;1.90;;
9409;SDS011;4744;52.576;13.568;2023-03-31T12:56:01;3.33;;;2.10;;
9409;SDS011;4744;52.576;13.568;2023-03-31T12:58:40;3.28;;;1.80;;
9409;SDS011;4744;52.576;13.568;2023-03-31T13:01:09;4.03;;;2.20;;
9409;SDS011;4744;52.576;13.568;2023-03-31T13:03:45;2.17;;;1.50;;
9409;SDS011;4744;52.576;13.568;2023-03-31T13:12:11;1.35;;;1.05;;
9409;SDS011;4744;52.576;13.568;2023-03-31T13:14:41;1.67;;;1.13;;
9409;SDS011;4744;52.576;13.568;2023-03-31T13:17:17;3.47;;;1.00;;
9409;SDS011;4744;52.576;13.568;2023-03-31T13:19:49;1.42;;;0.80;;
9409;SDS011;4744;52.576;13.568;2023-03-31T13:22:30;3.25;;;0.90;;
9409;SDS011;4744;52.576;13.568;2023-03-31T13:28:12;2.22;;;1.13;;
9409;SDS011;4744;52.576;13.568;2023-03-31T13:30:51;1.73;;;1.10;;
9409;SDS011;4744;52.576;13.568;2023-03-31T13:33:20;1.70;;;1.60;;
9409;SDS011;4744;52.576;13.568;2023-03-31T13:35:53;1.60;;;1.50;;
9409;SDS011;4744;52.576;13.568;2023-03-31T13:38:34;2.47;;;1.83;;
9409;SDS011;4744;52.576;13.568;2023-03-31T13:41:15;2.25;;;1.92;;
9409;SDS011;4744;52.576;13.568;2023-03-31T13:44:20;3.78;;;2.15;;
9409;SDS011;4744;52.576;13.568;2023-03-31T13:47:09;3.22;;;2.20;;
9409;SDS011;4744;52.576;13.568;2023-03-31T13:49:49;4.10;;;2.45;;
9409;SDS011;4744;52.576;13.568;2023-03-31T13:52:34;2.35;;;1.90;;
9409;SDS011;4744;52.576;13.568;2023-03-31T14:01:21;2.60;;;2.38;;
9409;SDS011;4744;52.576;13.568;2023-03-31T14:04:09;2.97;;;2.78;;
9409;SDS011;4744;52.576;13.568;2023-03-31T14:06:48;4.40;;;2.45;;
9409;SDS011;4744;52.576;13.568;2023-03-31T14:09:21;2.75;;;2.33;;
9409;SDS011;4744;52.576;13.568;2023-03-31T14:11:51;3.38;;;3.08;;
9409;SDS011;4744;52.576;13.568;2023-03-31T14:14:18;2.70;;;2.50;;
9409;SDS011;4744;52.576;13.568;2023-03-31T14:16:45;3.30;;;2.20;;
9409;SDS011;4744;52.576;13.568;2023-03-31T14:22:17;3.67;;;2.13;;
9409;SDS011;4744;52.576;13.568;2023-03-31T14:24:54;2.55;;;1.70;;
9409;SDS011;4744;52.576;13.568;2023-03-31T14:27:31;1.98;;;1.60;;
9409;SDS011;4744;52.576;13.568;2023-03-31T14:30:12;1.67;;;1.45;;
9409;SDS011;4744;52.576;13.568;2023-03-31T14:32:47;1.80;;;1.40;;
9409;SDS011;4744;52.576;13.568;2023-03-31T14:35:27;1.38;;;1.27;;
9409;SDS011;4744;52.576;13.568;2023-03-31T14:38:02;2.35;;;1.17;;
9409;SDS011;4744;52.576;13.568;2023-03-31T14:40:33;1.45;;;1.27;;
9409;SDS011;4744;52.576;13.568;2023-03-31T14:43:09;1.40;;;1.20;;
9409;SDS011;4744;52.576;13.568;2023-03-31T14:45:42;1.90;;;1.20;;
9409;SDS011;4744;52.576;13.568;2023-03-31T14:48:10;0.90;;;0.90;;
9409;SDS011;4744;52.576;13.568;2023-03-31T14:50:40;0.93;;;0.93;;
9409;SDS011;4744;52.576;13.568;2023-03-31T14:53:12;1.27;;;0.70;;
9409;SDS011;4744;52.576;13.568;2023-03-31T14:55:42;1.58;;;0.70;;
9409;SDS011;4744;52.576;13.568;2023-03-31T14:58:12;0.57;;;0.57;;
9409;SDS011;4744;52.576;13.568;2023-03-31T15:00:46;0.70;;;0.70;;
9409;SDS011;4744;52.576;13.568;2023-03-31T15:03:13;0.73;;;0.70;;
9409;SDS011;4744;52.576;13.568;2023-03-31T15:05:43;1.35;;;0.80;;
9409;SDS011;4744;52.576;13.568;2023-03-31T15:08:13;1.23;;;0.88;;
9409;SDS011;4744;52.576;13.568;2023-03-31T15:10:44;0.77;;;0.77;;
9409;SDS011;4744;52.576;13.568;2023-03-31T15:13:17;0.88;;;0.88;;
9409;SDS011;4744;52.576;13.568;2023-03-31T15:15:46;1.08;;;0.90;;
9409;SDS011;4744;52.576;13.568;2023-03-31T15:18:13;0.63;;;0.63;;
9409;SDS011;4744;52.576;13.568;2023-03-31T15:20:42;0.70;;;0.70;;
9409;SDS011;4744;52.576;13.568;2023-03-31T15:23:19;0.85;;;0.80;;
9409;SDS011;4744;52.576;13.568;2023-03-31T15:25:50;0.82;;;0.77;;
9409;SDS011;4744;52.576;13.568;2023-03-31T15:28:21;0.80;;;0.75;;
9409;SDS011;4744;52.576;13.568;2023-03-31T15:30:49;0.60;;;0.60;;
9409;SDS011;4744;52.576;13.568;2023-03-31T15:33:18;0.60;;;0.60;;
9409;SDS011;4744;52.576;13.568;2023-03-31T15:35:48;1.63;;;0.98;;
9409;SDS011;4744;52.576;13.568;2023-03-31T15:38:15;0.90;;;0.90;;
9409;SDS011;4744;52.576;13.568;2023-03-31T15:40:43;0.60;;;0.60;;
9409;SDS011;4744;52.576;13.568;2023-03-31T15:43:16;0.93;;;0.88;;
9409;SDS011;4744;52.576;13.568;2023-03-31T15:45:45;0.68;;;0.68;;
9409;SDS011;4744;52.576;13.568;2023-03-31T15:51:36;1.13;;;0.90;;
9409;SDS011;4744;52.576;13.568;2023-03-31T15:54:10;0.75;;;0.75;;
9409;SDS011;4744;52.576;13.568;2023-03-31T15:57:02;1.33;;;1.20;;